createdAt,value
2022-12-29T00:02:10.868Z,25.33
2022-12-29T00:09:42.608Z,25.33
2022-12-29T00:17:14.391Z,22.23
2022-12-29T00:25:04.541Z,23.80
2022-12-29T00:32:57.743Z,18.73
2022-12-29T00:40:47.918Z,19.80
2022-12-29T00:48:40.031Z,23.90
2022-12-29T00:56:11.845Z,18.85
2022-12-29T01:03:43.630Z,19.85
2022-12-29T01:11:15.512Z,20.55
2022-12-29T01:18:49.496Z,16.00
2022-12-29T01:26:21.407Z,16.30
2022-12-29T01:33:53.158Z,15.98
2022-12-29T01:41:25.394Z,14.55
2022-12-29T01:49:08.545Z,13.05
2022-12-29T01:56:40.297Z,13.45
2022-12-29T02:04:12.209Z,17.52
2022-12-29T02:11:43.969Z,11.73
2022-12-29T02:19:33.128Z,8.38
2022-12-29T02:27:22.252Z,9.20
2022-12-29T02:35:13.213Z,11.48
2022-12-29T02:43:05.046Z,8.27
2022-12-29T02:51:03.002Z,9.05
2022-12-29T02:58:34.809Z,8.18
2022-12-29T03:06:17.167Z,9.90
2022-12-29T03:14:11.839Z,8.30
2022-12-29T03:22:09.751Z,9.15
2022-12-29T03:29:54.480Z,8.02
2022-12-29T03:37:30.620Z,6.07
2022-12-29T03:45:05.168Z,9.25
2022-12-29T03:52:36.951Z,7.57
2022-12-29T04:00:10.348Z,6.95
2022-12-29T04:07:51.034Z,6.88
2022-12-29T04:15:24.441Z,7.15
2022-12-29T04:23:06.329Z,4.05
2022-12-29T04:30:39.751Z,4.43
2022-12-29T04:38:19.257Z,4.72
2022-12-29T04:45:52.942Z,6.28
2022-12-29T04:53:33.594Z,3.85
2022-12-29T05:01:05.499Z,5.35
2022-12-29T05:08:37.441Z,4.47
2022-12-29T05:16:10.220Z,4.78
2022-12-29T05:23:43.274Z,5.78
2022-12-29T05:31:15.276Z,4.95
2022-12-29T05:38:48.569Z,3.75
2022-12-29T05:46:20.739Z,4.75
2022-12-29T05:54:03.691Z,5.85
2022-12-29T06:01:35.946Z,4.40
2022-12-29T06:09:11.109Z,5.07
2022-12-29T06:16:43.790Z,4.22
2022-12-29T06:24:18.345Z,7.03
2022-12-29T06:31:52.022Z,5.60
2022-12-29T06:39:23.887Z,6.22
2022-12-29T06:47:07.013Z,3.97
2022-12-29T06:54:39.047Z,5.20
2022-12-29T07:02:12.017Z,4.65
2022-12-29T07:09:43.863Z,5.85
2022-12-29T07:17:15.631Z,5.53
2022-12-29T07:24:47.462Z,5.30
2022-12-29T07:32:19.369Z,4.65
2022-12-29T07:39:51.189Z,5.50
2022-12-29T07:47:22.943Z,6.53
2022-12-29T07:54:55.335Z,6.25
2022-12-29T08:02:27.516Z,4.65
2022-12-29T08:09:59.787Z,5.50
2022-12-29T08:17:31.540Z,4.65
2022-12-29T08:25:03.421Z,4.15
2022-12-29T08:32:35.262Z,5.35
2022-12-29T08:40:08.260Z,4.95
2022-12-29T08:47:40.392Z,4.80
2022-12-29T08:55:12.234Z,5.07
2022-12-29T09:02:44.833Z,6.63
2022-12-29T09:10:16.770Z,6.35
2022-12-29T09:17:48.541Z,5.65
2022-12-29T09:25:20.762Z,4.70
2022-12-29T09:32:55.257Z,6.18
2022-12-29T09:40:30.977Z,14.35
2022-12-29T09:48:09.664Z,6.85
2022-12-29T09:56:01.579Z,4.88
2022-12-29T10:03:49.805Z,8.20
2022-12-29T10:11:37.633Z,6.95
2022-12-29T10:19:29.689Z,6.22
2022-12-29T10:27:04.646Z,11.88
2022-12-29T10:34:46.441Z,6.72
2022-12-29T10:42:34.507Z,7.68
2022-12-29T10:50:06.497Z,6.88
2022-12-29T10:57:41.743Z,5.35
2022-12-29T11:05:57.394Z,5.95
2022-12-29T11:13:39.035Z,6.53
2022-12-29T11:21:35.069Z,7.63
2022-12-29T11:29:28.885Z,5.50
2022-12-29T11:37:11.506Z,4.25
2022-12-29T11:44:46.968Z,4.57
2022-12-29T11:52:23.978Z,6.55
2022-12-29T11:59:57.031Z,7.38
2022-12-29T12:07:50.103Z,5.18
2022-12-29T12:16:05.384Z,5.40
2022-12-29T12:23:58.543Z,8.90
2022-12-29T12:31:50.667Z,5.80
2022-12-29T12:39:56.233Z,6.43
2022-12-29T12:48:03.117Z,5.22
2022-12-29T12:55:41.393Z,7.25
2022-12-29T13:03:56.204Z,5.97
2022-12-29T13:11:34.782Z,7.70
2022-12-29T13:19:21.920Z,4.32
2022-12-29T13:27:37.282Z,9.45
2022-12-29T13:35:17.380Z,4.55
2022-12-29T13:42:49.643Z,8.82
2022-12-29T13:50:23.969Z,4.15
2022-12-29T13:58:06.126Z,9.73
2022-12-29T14:05:38.069Z,9.82
2022-12-29T14:13:23.306Z,4.15
2022-12-29T14:21:23.524Z,8.27
2022-12-29T14:29:01.315Z,5.88
2022-12-29T14:36:43.932Z,4.00
2022-12-29T14:44:20.369Z,3.70
2022-12-29T14:51:53.940Z,4.65
2022-12-29T14:59:25.678Z,6.18
2022-12-29T15:06:57.478Z,9.93
2022-12-29T15:14:36.691Z,5.35
2022-12-29T15:22:09.154Z,5.85
2022-12-29T15:29:42.807Z,6.78
2022-12-29T15:37:24.268Z,8.43
2022-12-29T15:45:09.312Z,4.95
2022-12-29T15:52:42.266Z,7.05
2022-12-29T16:00:34.332Z,5.07
2022-12-29T16:08:37.789Z,7.35
2022-12-29T16:16:15.303Z,4.70
2022-12-29T16:23:50.310Z,10.20
2022-12-29T16:32:01.555Z,6.68
2022-12-29T16:39:40.555Z,6.43
2022-12-29T16:47:12.115Z,5.72
2022-12-29T16:54:45.486Z,6.88
2022-12-29T17:02:18.043Z,6.70
2022-12-29T17:09:51.160Z,8.80
2022-12-29T17:17:40.053Z,8.40
2022-12-29T17:25:19.912Z,6.82
2022-12-29T17:33:04.356Z,5.78
2022-12-29T17:40:36.071Z,6.38
2022-12-29T17:48:16.054Z,6.57
2022-12-29T17:55:47.960Z,6.20
2022-12-29T18:03:25.218Z,7.63
2022-12-29T18:10:57.294Z,7.55
2022-12-29T18:18:32.213Z,6.93
2022-12-29T18:26:06.041Z,10.82
2022-12-29T18:33:37.797Z,9.73
2022-12-29T18:41:21.008Z,10.25
2022-12-29T18:48:53.319Z,15.52
2022-12-29T18:56:25.230Z,13.32
2022-12-29T19:03:57.006Z,13.15
2022-12-29T19:11:28.854Z,13.55
2022-12-29T19:19:09.481Z,16.02
2022-12-29T19:26:41.596Z,15.30
2022-12-29T19:34:15.021Z,17.40
2022-12-29T19:41:47.024Z,18.10
2022-12-29T19:49:18.763Z,17.33
2022-12-29T19:56:50.551Z,20.77
2022-12-29T20:04:22.267Z,19.05
2022-12-29T20:11:54.093Z,19.80
2022-12-29T20:19:25.878Z,21.77
2022-12-29T20:26:59.055Z,22.60
2022-12-29T20:34:31.061Z,22.13
2022-12-29T20:42:02.873Z,23.05
2022-12-29T20:49:37.266Z,22.40
2022-12-29T20:57:09.034Z,21.10
2022-12-29T21:05:13.491Z,24.17
2022-12-29T21:12:32.485Z,28.38
2022-12-29T21:20:04.616Z,29.15
2022-12-29T21:27:36.629Z,35.03
2022-12-29T21:35:09.421Z,32.53
2022-12-29T21:42:41.160Z,37.35
2022-12-29T21:50:13.003Z,34.85
2022-12-29T21:58:03.725Z,33.28
2022-12-29T22:05:53.919Z,28.92
2022-12-29T22:13:25.691Z,34.90
2022-12-29T22:20:57.527Z,31.13
2022-12-29T22:28:29.283Z,33.83
2022-12-29T22:36:01.043Z,31.40
2022-12-29T22:43:32.798Z,28.85
2022-12-29T22:51:04.786Z,31.02
2022-12-29T22:58:43.354Z,32.03
2022-12-29T23:06:16.419Z,30.27
2022-12-29T23:13:48.143Z,32.03
2022-12-29T23:21:20.281Z,32.47
2022-12-29T23:28:57.959Z,28.48
2022-12-29T23:36:32.072Z,37.53
2022-12-29T23:44:04.130Z,28.00
2022-12-29T23:51:35.946Z,26.88
2022-12-29T23:59:07.808Z,29.02
